Time;durP1;ratioP1;P1;durP2;ratioP2;P2;SDS_P1;SDS_P2;PMS_P1;PMS_P2;Temp;Humidity;BMP_temperature;BMP_pressure;BME280_temperature;BME280_humidity;BME280_pressure;Samples;Min_cycle;Max_cycle;Signal;HPM_P1;HPM_P2
2023/05/11 00:01:06;;;;;;;2.20;1.85;;;14.70;72.10;;;;;;5037239;28;20057;-63
2023/05/11 00:03:33;;;;;;;2.42;1.92;;;14.70;72.20;;;;;;5038976;28;20018;-64
2023/05/11 00:05:59;;;;;;;3.42;2.00;;;14.70;72.30;;;;;;5036307;28;20093;-64
2023/05/11 00:08:25;;;;;;;2.67;1.98;;;14.70;72.30;;;;;;5011264;28;20056;-63
2023/05/11 00:10:50;;;;;;;2.22;1.92;;;14.70;72.20;;;;;;5034305;28;20037;-64
2023/05/11 00:13:16;;;;;;;2.30;2.00;;;14.70;72.20;;;;;;5017228;28;20551;-64
2023/05/11 00:15:42;;;;;;;4.78;1.98;;;14.70;72.20;;;;;;5019563;28;20032;-65
2023/05/11 00:18:08;;;;;;;2.40;1.90;;;14.60;72.20;;;;;;5018139;28;20025;-62
2023/05/11 00:20:34;;;;;;;2.20;2.00;;;14.70;72.20;;;;;;5033829;28;20025;-65
2023/05/11 00:23:00;;;;;;;2.30;2.10;;;14.60;72.30;;;;;;5038951;28;20097;-65
2023/05/11 00:25:25;;;;;;;2.10;1.90;;;14.60;72.20;;;;;;5034946;28;20484;-64
2023/05/11 00:27:51;;;;;;;2.80;2.40;;;14.70;72.20;;;;;;5032861;28;20037;-65
2023/05/11 00:30:17;;;;;;;4.25;2.13;;;14.60;72.80;;;;;;5035872;28;20030;-64
2023/05/11 00:32:43;;;;;;;2.30;2.10;;;14.60;72.20;;;;;;5034952;28;20045;-63
2023/05/11 00:35:10;;;;;;;5.07;2.28;;;14.60;72.30;;;;;;5034094;28;20038;-63
2023/05/11 00:37:37;;;;;;;3.97;2.10;;;14.60;72.30;;;;;;5037097;28;20076;-64
2023/05/11 00:40:03;;;;;;;4.80;2.33;;;14.60;72.40;;;;;;5013615;28;20908;-64
2023/05/11 00:42:29;;;;;;;5.20;2.42;;;14.60;72.40;;;;;;4960927;28;20056;-64
2023/05/11 00:44:54;;;;;;;3.15;2.38;;;14.60;72.40;;;;;;5033270;28;20042;-64
2023/05/11 00:47:20;;;;;;;9.00;4.72;;;14.60;72.30;;;;;;5036035;28;20036;-64
2023/05/11 00:49:47;;;;;;;7.30;4.53;;;14.60;72.30;;;;;;5041509;28;20036;-65
2023/05/11 00:52:13;;;;;;;6.28;3.70;;;14.60;72.30;;;;;;5043957;28;20025;-64
2023/05/11 00:54:40;;;;;;;4.15;3.22;;;14.60;72.40;;;;;;5035637;28;20500;-64
2023/05/11 00:57:06;;;;;;;3.20;2.58;;;14.60;72.40;;;;;;5036336;28;20141;-64
2023/05/11 00:59:32;;;;;;;4.40;2.88;;;14.60;72.50;;;;;;5034038;28;20455;-65
2023/05/11 01:01:58;;;;;;;6.10;2.70;;;14.60;72.40;;;;;;5034639;28;20025;-63
2023/05/11 01:04:24;;;;;;;3.30;2.70;;;14.60;72.20;;;;;;5034911;28;20029;-63
2023/05/11 01:07:11;;;;;;;6.10;3.30;;;14.60;72.40;;;;;;5030084;28;20074;-63
2023/05/11 01:09:58;;;;;;;5.57;3.47;;;14.50;72.40;;;;;;5035400;28;20026;-65
2023/05/11 01:12:47;;;;;;;4.38;3.33;;;14.50;72.50;;;;;;5012117;28;20654;-62
2023/05/11 01:15:38;;;;;;;3.47;3.00;;;14.50;72.70;;;;;;5031910;28;20064;-64
2023/05/11 01:18:25;;;;;;;4.32;3.08;;;14.50;72.70;;;;;;5033059;28;20022;-64
2023/05/11 01:20:55;;;;;;;3.33;3.03;;;14.50;72.50;;;;;;5029523;28;20044;-62
2023/05/11 01:23:39;;;;;;;3.55;3.17;;;14.40;72.30;;;;;;5032373;28;20033;-64
2023/05/11 01:26:25;;;;;;;3.60;3.00;;;14.40;72.70;;;;;;5030067;28;20122;-63
2023/05/11 01:29:12;;;;;;;4.75;3.35;;;14.40;73.10;;;;;;5032387;28;20082;-65
2023/05/11 01:31:41;;;;;;;5.50;3.88;;;14.40;73.00;;;;;;5035085;28;20060;-63
2023/05/11 01:34:25;;;;;;;9.13;4.45;;;14.40;72.50;;;;;;5030592;28;20080;-63
2023/05/11 01:36:57;;;;;;;5.25;4.10;;;14.40;73.00;;;;;;5034224;28;20103;-63
2023/05/11 01:39:46;;;;;;;5.10;4.32;;;14.40;72.90;;;;;;5030760;28;20120;-64
2023/05/11 01:42:14;;;;;;;8.23;7.00;;;14.40;73.00;;;;;;4941423;28;20029;-63
2023/05/11 01:44:43;;;;;;;7.38;6.18;;;14.40;72.80;;;;;;5032786;28;20097;-64
2023/05/11 01:47:10;;;;;;;10.90;5.30;;;14.40;72.80;;;;;;5031825;28;20052;-63
2023/05/11 01:49:39;;;;;;;7.93;5.38;;;14.30;72.70;;;;;;5035435;28;20033;-65
2023/05/11 01:52:07;;;;;;;6.10;4.75;;;14.30;72.80;;;;;;5031192;28;20047;-64
2023/05/11 01:54:34;;;;;;;6.38;4.22;;;14.30;72.90;;;;;;5029429;28;20467;-64
2023/05/11 01:57:01;;;;;;;5.22;4.57;;;14.40;73.00;;;;;;5032508;28;20034;-64
2023/05/11 01:59:28;;;;;;;5.93;4.43;;;14.30;73.00;;;;;;5035302;28;20033;-63
2023/05/11 02:01:56;;;;;;;4.93;4.43;;;14.30;72.90;;;;;;5034877;28;20064;-64
2023/05/11 02:04:23;;;;;;;4.65;4.22;;;14.30;73.00;;;;;;5033075;28;20052;-64
2023/05/11 02:06:51;;;;;;;6.45;4.18;;;14.30;73.10;;;;;;5030623;28;20025;-63
2023/05/11 02:09:17;;;;;;;4.47;4.07;;;14.30;73.10;;;;;;5032539;28;20445;-64
2023/05/11 02:11:46;;;;;;;7.78;4.07;;;14.30;73.10;;;;;;5033129;28;20022;-62
2023/05/11 02:14:13;;;;;;;8.95;3.97;;;14.30;73.20;;;;;;5011525;28;20113;-63
2023/05/11 02:16:39;;;;;;;6.13;4.07;;;14.30;73.10;;;;;;5031208;28;20030;-65
2023/05/11 02:19:06;;;;;;;4.65;4.22;;;14.30;73.10;;;;;;5034109;28;20045;-64
2023/05/11 02:21:33;;;;;;;5.25;4.20;;;14.30;73.20;;;;;;5033270;28;21376;-65
2023/05/11 02:24:02;;;;;;;6.65;3.90;;;14.30;73.20;;;;;;5035136;28;20029;-63
2023/05/11 02:26:28;;;;;;;4.78;4.25;;;14.30;73.30;;;;;;5035483;28;20021;-64
2023/05/11 02:28:54;;;;;;;4.90;4.28;;;14.30;73.20;;;;;;5033854;28;20017;-64
2023/05/11 02:31:26;;;;;;;5.43;4.40;;;14.30;73.20;;;;;;5029741;28;20577;-65
2023/05/11 02:33:54;;;;;;;8.98;4.60;;;14.30;73.30;;;;;;5030722;28;20037;-63
2023/05/11 02:36:22;;;;;;;5.28;4.38;;;14.30;73.10;;;;;;5034197;28;20018;-65
2023/05/11 02:38:51;;;;;;;5.10;4.18;;;14.30;73.10;;;;;;5033479;28;20064;-64
2023/05/11 02:41:22;;;;;;;5.57;4.38;;;14.30;73.10;;;;;;4941700;28;20029;-63
2023/05/11 02:43:51;;;;;;;4.50;4.10;;;14.30;73.10;;;;;;5030860;28;20029;-64
2023/05/11 02:46:21;;;;;;;4.65;4.20;;;14.30;73.20;;;;;;5033224;28;20053;-64
2023/05/11 02:48:53;;;;;;;4.45;4.03;;;14.30;73.20;;;;;;5016016;28;20130;-64
2023/05/11 02:51:23;;;;;;;5.60;4.20;;;14.30;73.10;;;;;;5035063;28;20067;-64
2023/05/11 02:53:51;;;;;;;5.40;4.38;;;14.30;73.10;;;;;;5033309;28;20056;-65
2023/05/11 02:56:17;;;;;;;8.43;4.25;;;14.30;72.90;;;;;;5030843;28;20088;-64
2023/05/11 02:58:43;;;;;;;5.63;3.92;;;14.30;72.80;;;;;;5014293;28;20059;-64
2023/05/11 03:01:09;;;;;;;7.88;4.63;;;14.30;72.90;;;;;;5034146;28;20559;-64
2023/05/11 03:03:35;;;;;;;4.85;4.32;;;14.20;73.00;;;;;;5035532;28;20032;-64
2023/05/11 03:06:01;;;;;;;5.13;4.05;;;14.30;73.20;;;;;;5033785;28;20033;-64
2023/05/11 03:08:26;;;;;;;5.10;4.22;;;14.20;73.20;;;;;;5036693;28;20102;-64
2023/05/11 03:10:53;;;;;;;5.75;4.13;;;14.20;73.30;;;;;;5038597;28;20025;-64
2023/05/11 03:13:21;;;;;;;4.35;3.95;;;14.20;73.40;;;;;;5032245;28;20053;-64
2023/05/11 03:15:47;;;;;;;4.45;4.00;;;14.20;73.40;;;;;;5035721;28;20030;-64
2023/05/11 03:18:14;;;;;;;5.32;4.15;;;14.20;73.50;;;;;;5038092;28;20068;-64
2023/05/11 03:20:41;;;;;;;4.80;4.20;;;14.30;73.70;;;;;;5032230;28;20029;-64
2023/05/11 03:23:07;;;;;;;6.25;3.60;;;14.30;73.60;;;;;;5035895;28;20480;-64
2023/05/11 03:25:34;;;;;;;5.53;3.53;;;14.30;73.60;;;;;;5038283;28;20442;-63
2023/05/11 03:28:01;;;;;;;5.75;3.75;;;14.30;73.50;;;;;;5039314;28;21207;-64
2023/05/11 03:30:28;;;;;;;7.15;3.97;;;14.30;73.60;;;;;;5045264;28;20093;-64
2023/05/11 03:32:54;;;;;;;3.75;3.40;;;14.20;73.60;;;;;;5040825;28;20075;-64
2023/05/11 03:35:24;;;;;;;4.40;3.10;;;14.20;73.50;;;;;;5036474;28;20029;-64
2023/05/11 03:37:51;;;;;;;4.38;3.30;;;14.20;73.30;;;;;;5038453;28;20049;-64
2023/05/11 03:40:20;;;;;;;4.18;3.67;;;14.20;73.20;;;;;;5038263;28;20025;-64
2023/05/11 03:42:46;;;;;;;8.80;4.50;;;14.20;73.40;;;;;;4945712;28;20022;-64
2023/05/11 03:45:17;;;;;;;6.95;4.50;;;14.20;73.40;;;;;;5039473;28;20017;-66
2023/05/11 03:47:45;;;;;;;4.35;3.22;;;14.20;73.60;;;;;;5028502;28;20029;-65
2023/05/11 03:50:12;;;;;;;5.15;2.85;;;14.20;73.50;;;;;;5029177;28;21404;-64
2023/05/11 03:52:38;;;;;;;7.13;3.13;;;14.20;73.80;;;;;;5033750;28;20044;-64
2023/05/11 03:55:05;;;;;;;7.18;3.30;;;14.20;73.40;;;;;;5035850;28;20049;-63
2023/05/11 03:57:31;;;;;;;2.95;2.38;;;14.20;73.40;;;;;;5035548;28;20025;-65
2023/05/11 03:59:56;;;;;;;2.13;1.90;;;14.20;73.20;;;;;;5038443;28;20044;-64
2023/05/11 04:02:23;;;;;;;2.72;1.60;;;14.20;73.10;;;;;;5034555;28;20034;-65
2023/05/11 04:04:49;;;;;;;1.63;1.33;;;14.20;73.00;;;;;;5033887;28;20072;-64
2023/05/11 04:07:15;;;;;;;4.20;1.50;;;14.20;72.80;;;;;;5034710;28;20064;-64
2023/05/11 04:09:41;;;;;;;1.40;1.30;;;14.20;72.70;;;;;;5037763;28;20025;-65
2023/05/11 04:12:06;;;;;;;2.75;1.35;;;14.20;72.60;;;;;;5039262;28;20140;-64
2023/05/11 04:14:32;;;;;;;1.63;1.15;;;14.20;72.60;;;;;;5032281;28;20091;-65
2023/05/11 04:16:58;;;;;;;3.05;1.40;;;14.20;72.70;;;;;;5033056;28;20030;-65
2023/05/11 04:19:24;;;;;;;5.25;1.35;;;14.20;72.70;;;;;;5036929;28;20044;-64
2023/05/11 04:21:49;;;;;;;1.10;1.00;;;14.20;72.80;;;;;;5037293;28;20021;-64
2023/05/11 04:24:15;;;;;;;5.68;1.45;;;14.10;72.60;;;;;;5037909;28;20129;-65
2023/05/11 04:26:41;;;;;;;1.30;1.02;;;14.20;72.60;;;;;;5030481;28;20040;-64
2023/05/11 04:29:06;;;;;;;1.10;1.05;;;14.20;72.50;;;;;;5037543;28;20025;-64
2023/05/11 04:31:32;;;;;;;1.75;1.10;;;14.20;72.40;;;;;;5036704;28;20060;-65
2023/05/11 04:33:58;;;;;;;1.00;1.00;;;14.10;72.30;;;;;;5038432;28;20052;-64
2023/05/11 04:36:24;;;;;;;1.65;1.23;;;14.10;72.20;;;;;;5037507;28;20057;-64
2023/05/11 04:38:49;;;;;;;5.97;1.13;;;14.10;72.40;;;;;;5034372;28;20045;-64
2023/05/11 04:41:15;;;;;;;1.42;0.85;;;14.10;72.60;;;;;;4931598;28;20373;-64
2023/05/11 04:43:41;;;;;;;2.08;1.00;;;14.10;72.70;;;;;;5037006;28;20028;-64
2023/05/11 04:46:06;;;;;;;4.70;1.25;;;14.10;72.80;;;;;;5029332;28;20029;-65
2023/05/11 04:48:32;;;;;;;1.27;1.10;;;14.10;72.70;;;;;;5033237;28;20113;-64
2023/05/11 04:50:58;;;;;;;1.88;1.35;;;14.10;72.60;;;;;;5031747;28;20038;-64
2023/05/11 04:53:23;;;;;;;1.00;0.90;;;14.10;72.50;;;;;;5031328;28;20036;-64
2023/05/11 04:55:49;;;;;;;1.48;1.00;;;14.10;72.50;;;;;;5010856;28;20098;-64
2023/05/11 04:58:15;;;;;;;1.63;1.00;;;14.10;72.30;;;;;;5029449;28;20111;-65
2023/05/11 05:00:40;;;;;;;2.20;1.20;;;14.10;72.30;;;;;;5034916;28;20083;-64
2023/05/11 05:03:06;;;;;;;4.80;1.05;;;14.10;72.30;;;;;;5035084;28;20037;-64
2023/05/11 05:05:33;;;;;;;1.08;0.90;;;14.10;72.20;;;;;;5036413;28;20033;-65
2023/05/11 05:07:58;;;;;;;4.03;1.13;;;14.10;72.10;;;;;;5034449;28;20322;-65
2023/05/11 05:10:24;;;;;;;3.78;1.20;;;14.10;72.90;;;;;;5030909;28;20047;-65
2023/05/11 05:12:50;;;;;;;1.10;1.00;;;14.10;72.30;;;;;;5034411;28;20126;-65
2023/05/11 05:15:16;;;;;;;4.65;1.65;;;14.00;72.10;;;;;;5038182;28;20068;-65
2023/05/11 05:17:42;;;;;;;2.65;1.38;;;14.00;72.10;;;;;;5033328;28;20025;-65
2023/05/11 05:20:08;;;;;;;1.83;1.42;;;14.00;72.10;;;;;;5037298;28;20040;-64
2023/05/11 05:22:33;;;;;;;1.50;1.33;;;14.00;72.10;;;;;;5023307;28;20044;-64
2023/05/11 05:25:00;;;;;;;3.45;1.40;;;14.10;72.30;;;;;;5035706;28;20380;-64
2023/05/11 05:27:25;;;;;;;3.83;1.40;;;14.00;72.20;;;;;;5037617;28;20629;-65
2023/05/11 05:29:51;;;;;;;1.15;1.10;;;14.10;72.40;;;;;;5036323;28;20029;-64
2023/05/11 05:32:17;;;;;;;1.25;1.10;;;14.00;72.50;;;;;;5020617;28;20068;-65
2023/05/11 05:34:42;;;;;;;1.23;1.05;;;14.10;72.70;;;;;;5030483;28;20128;-64
2023/05/11 05:37:09;;;;;;;1.20;1.10;;;14.10;72.70;;;;;;5036336;28;20072;-64
2023/05/11 05:39:41;;;;;;;2.63;1.30;;;14.10;72.70;;;;;;4988967;28;20068;-65
2023/05/11 05:42:07;;;;;;;2.72;1.40;;;14.10;72.90;;;;;;5034664;28;20085;-65
2023/05/11 05:44:32;;;;;;;2.88;1.23;;;14.10;72.90;;;;;;5031597;28;20049;-65
2023/05/11 05:46:58;;;;;;;1.95;1.30;;;14.20;72.90;;;;;;5034935;28;20030;-65
2023/05/11 05:49:24;;;;;;;1.80;1.20;;;14.20;72.90;;;;;;5033696;28;20045;-64
2023/05/11 05:51:51;;;;;;;1.88;1.15;;;14.20;72.80;;;;;;5033592;28;20037;-65
2023/05/11 05:54:16;;;;;;;2.75;1.30;;;14.20;72.80;;;;;;5035428;28;20111;-66
2023/05/11 05:56:43;;;;;;;4.18;1.35;;;14.20;72.70;;;;;;5017032;28;20025;-64
2023/05/11 05:59:09;;;;;;;2.75;1.23;;;14.20;72.60;;;;;;5034947;28;20160;-64
2023/05/11 06:01:36;;;;;;;1.65;1.27;;;14.30;72.90;;;;;;5036475;28;20107;-65
2023/05/11 06:04:02;;;;;;;1.58;1.17;;;14.30;73.00;;;;;;5016989;28;20056;-68
2023/05/11 06:06:28;;;;;;;5.10;1.08;;;14.30;72.90;;;;;;5031073;28;20037;-67
2023/05/11 06:08:53;;;;;;;2.13;1.05;;;14.40;73.00;;;;;;5034644;28;20033;-67
2023/05/11 06:11:20;;;;;;;1.48;1.17;;;14.40;73.10;;;;;;5021575;28;20033;-67
2023/05/11 06:13:46;;;;;;;1.50;1.25;;;14.40;73.20;;;;;;5021114;28;20064;-67
2023/05/11 06:16:11;;;;;;;2.17;1.20;;;14.40;73.20;;;;;;5037903;28;20053;-67
2023/05/11 06:18:37;;;;;;;6.10;1.42;;;14.40;73.20;;;;;;5038050;28;20125;-68
2023/05/11 06:21:03;;;;;;;2.22;1.13;;;14.50;73.20;;;;;;5035713;28;20025;-68
2023/05/11 06:23:29;;;;;;;4.00;1.30;;;14.50;73.00;;;;;;5035964;28;20496;-67
2023/05/11 06:25:55;;;;;;;9.13;1.50;;;14.60;73.00;;;;;;5018315;28;20042;-67
2023/05/11 06:28:23;;;;;;;3.08;1.48;;;14.60;73.20;;;;;;5018721;28;20037;-68
2023/05/11 06:30:49;;;;;;;3.10;1.70;;;14.70;73.20;;;;;;5033691;28;20029;-67
2023/05/11 06:33:14;;;;;;;2.33;1.08;;;14.70;73.10;;;;;;5037901;28;20060;-68
2023/05/11 06:35:40;;;;;;;5.80;1.30;;;14.70;72.90;;;;;;5032768;28;20032;-67
2023/05/11 06:38:06;;;;;;;2.55;1.10;;;14.80;72.90;;;;;;5032448;28;20033;-68
2023/05/11 06:40:31;;;;;;;2.13;1.20;;;14.80;72.60;;;;;;4959319;28;20021;-67
2023/05/11 06:42:57;;;;;;;0.93;0.93;;;14.80;72.40;;;;;;5037216;28;20028;-68
2023/05/11 06:45:23;;;;;;;1.50;1.17;;;14.90;72.50;;;;;;5038012;28;20060;-70
2023/05/11 06:47:48;;;;;;;4.18;1.42;;;14.90;72.30;;;;;;5020067;28;20049;-68
2023/05/11 06:50:14;;;;;;;1.23;1.13;;;14.90;72.80;;;;;;5019332;28;20342;-68
2023/05/11 06:52:40;;;;;;;2.50;1.50;;;15.00;72.20;;;;;;5035738;28;20029;-67
2023/05/11 06:55:06;;;;;;;1.20;1.10;;;15.00;72.10;;;;;;5034390;28;20041;-67
2023/05/11 06:57:32;;;;;;;1.25;1.15;;;15.00;71.70;;;;;;5035360;28;20026;-66
2023/05/11 06:59:57;;;;;;;5.18;1.10;;;15.00;71.60;;;;;;5033804;28;20033;-67
2023/05/11 07:02:23;;;;;;;3.33;1.10;;;15.00;71.60;;;;;;5042092;28;20037;-66
2023/05/11 07:04:49;;;;;;;1.35;1.15;;;15.10;71.50;;;;;;5046662;28;20025;-68
2023/05/11 07:07:14;;;;;;;1.33;1.23;;;15.10;71.20;;;;;;5039796;28;20038;-68
2023/05/11 07:09:40;;;;;;;1.65;1.20;;;15.10;71.00;;;;;;5036608;28;20059;-68
2023/05/11 07:12:06;;;;;;;3.63;1.02;;;15.00;71.00;;;;;;5034513;28;20030;-67
2023/05/11 07:14:32;;;;;;;1.58;1.10;;;15.00;71.10;;;;;;5015524;28;20107;-67
2023/05/11 07:16:57;;;;;;;3.53;1.10;;;15.00;71.20;;;;;;5035049;28;20458;-68
2023/05/11 07:19:23;;;;;;;4.72;1.10;;;15.00;71.10;;;;;;5033720;28;20404;-67
2023/05/11 07:21:49;;;;;;;1.45;1.25;;;15.00;71.20;;;;;;5036273;28;21245;-67
2023/05/11 07:24:14;;;;;;;1.35;1.02;;;15.00;71.60;;;;;;5031898;28;20595;-67
2023/05/11 07:26:40;;;;;;;1.30;1.20;;;15.00;71.80;;;;;;5034018;28;20040;-68
2023/05/11 07:29:06;;;;;;;1.13;1.00;;;15.10;72.10;;;;;;5014906;28;20040;-68
2023/05/11 07:31:32;;;;;;;1.30;1.17;;;15.10;72.20;;;;;;5030015;28;20056;-67
2023/05/11 07:33:58;;;;;;;0.95;0.88;;;15.10;72.10;;;;;;5031925;28;20110;-67
2023/05/11 07:36:24;;;;;;;3.80;1.70;;;15.20;71.80;;;;;;5035665;28;20065;-68
2023/05/11 07:38:49;;;;;;;2.47;1.35;;;15.30;71.30;;;;;;5032684;28;20030;-68
2023/05/11 07:41:16;;;;;;;3.20;1.40;;;15.30;71.20;;;;;;4962353;28;20026;-67
2023/05/11 07:43:42;;;;;;;4.88;1.00;;;15.30;71.20;;;;;;5030743;28;20025;-67
2023/05/11 07:46:08;;;;;;;1.85;1.30;;;15.30;70.90;;;;;;5018331;28;20052;-68
2023/05/11 07:48:33;;;;;;;4.45;1.48;;;15.40;70.80;;;;;;5031506;28;20021;-68
2023/05/11 07:51:00;;;;;;;4.05;1.30;;;15.40;70.80;;;;;;5034051;28;20888;-67
2023/05/11 07:53:26;;;;;;;2.60;1.10;;;15.40;70.80;;;;;;5037271;28;20049;-68
2023/05/11 07:55:52;;;;;;;4.68;1.00;;;15.40;70.80;;;;;;5039857;28;20029;-68
2023/05/11 07:58:17;;;;;;;3.00;1.05;;;15.40;70.70;;;;;;5040102;28;20048;-67
2023/05/11 08:00:43;;;;;;;3.05;1.20;;;15.50;70.70;;;;;;5037565;28;20037;-68
2023/05/11 08:03:09;;;;;;;1.10;1.00;;;15.50;70.50;;;;;;5038591;28;20097;-68
2023/05/11 08:05:36;;;;;;;2.13;1.17;;;15.50;70.40;;;;;;5036328;28;20048;-67
2023/05/11 08:08:03;;;;;;;2.05;0.98;;;15.50;70.30;;;;;;5038240;28;20036;-68
2023/05/11 08:10:30;;;;;;;1.65;0.93;;;15.50;70.10;;;;;;5037890;28;20484;-69
2023/05/11 08:12:56;;;;;;;1.58;1.00;;;15.50;70.50;;;;;;5038535;28;20053;-67
2023/05/11 08:15:21;;;;;;;1.48;1.10;;;15.60;70.40;;;;;;5038178;28;20063;-68
2023/05/11 08:17:47;;;;;;;1.23;0.90;;;15.60;70.30;;;;;;5037852;28;20466;-68
2023/05/11 08:20:13;;;;;;;1.30;1.20;;;15.60;70.00;;;;;;5036889;28;20040;-69
2023/05/11 08:22:38;;;;;;;1.20;1.10;;;15.60;70.10;;;;;;5037867;28;20036;-68
2023/05/11 08:25:05;;;;;;;2.90;1.13;;;15.60;70.20;;;;;;5019584;28;20040;-69
2023/05/11 08:27:30;;;;;;;1.02;0.82;;;15.60;70.20;;;;;;5021701;28;20018;-67
2023/05/11 08:29:56;;;;;;;1.15;1.00;;;15.60;70.00;;;;;;5038143;28;20029;-68
2023/05/11 08:32:22;;;;;;;4.70;1.40;;;15.60;70.00;;;;;;5038712;28;20049;-68
2023/05/11 08:34:47;;;;;;;2.63;1.70;;;15.60;70.00;;;;;;5037629;28;20040;-68
2023/05/11 08:37:13;;;;;;;1.20;1.10;;;15.60;69.90;;;;;;5004994;28;20044;-68
2023/05/11 08:39:53;;;;;;;1.17;1.08;;;15.60;69.40;;;;;;5028893;28;20081;-67
2023/05/11 08:42:22;;;;;;;1.25;1.15;;;15.60;69.20;;;;;;5034203;28;20056;-67
2023/05/11 08:44:48;;;;;;;1.38;1.17;;;15.60;69.80;;;;;;5036259;28;20029;-67
2023/05/11 08:47:14;;;;;;;1.20;1.10;;;15.60;69.40;;;;;;5040675;28;20029;-67
2023/05/11 08:49:40;;;;;;;1.05;0.90;;;15.70;69.60;;;;;;5039303;28;20049;-68
2023/05/11 08:52:08;;;;;;;3.03;1.15;;;15.70;69.70;;;;;;5035919;28;20102;-68
2023/05/11 08:54:34;;;;;;;0.80;0.80;;;15.70;69.40;;;;;;5035248;28;20111;-69
2023/05/11 08:57:01;;;;;;;0.90;0.90;;;15.80;69.50;;;;;;5036337;28;20021;-68
2023/05/11 08:59:27;;;;;;;0.90;0.88;;;15.80;69.30;;;;;;5037949;28;20057;-68
2023/05/11 09:01:56;;;;;;;2.92;1.20;;;15.80;69.40;;;;;;5036119;28;20022;-69
2023/05/11 09:04:23;;;;;;;1.65;0.95;;;15.90;69.20;;;;;;5032602;28;20396;-68
2023/05/11 09:06:50;;;;;;;1.83;0.98;;;15.90;68.70;;;;;;5031133;28;20033;-67
2023/05/11 09:09:17;;;;;;;1.30;0.90;;;16.00;68.90;;;;;;5037771;28;20033;-67
2023/05/11 09:11:44;;;;;;;0.60;0.60;;;16.00;68.50;;;;;;5036565;28;20032;-68
2023/05/11 09:14:10;;;;;;;1.73;0.80;;;16.10;68.40;;;;;;5009685;28;20051;-69
2023/05/11 09:16:35;;;;;;;1.10;1.00;;;16.10;68.20;;;;;;5037697;28;20037;-68
2023/05/11 09:19:03;;;;;;;0.85;0.70;;;16.10;68.50;;;;;;5036993;28;20037;-68
2023/05/11 09:21:30;;;;;;;0.70;0.60;;;16.10;68.40;;;;;;5037147;28;20026;-67
2023/05/11 09:23:58;;;;;;;1.27;0.70;;;16.10;68.50;;;;;;5036159;28;20041;-66
2023/05/11 09:26:27;;;;;;;6.60;0.75;;;16.20;68.70;;;;;;5018899;28;20036;-67
2023/05/11 09:28:56;;;;;;;0.70;0.70;;;16.20;68.40;;;;;;5036462;28;20037;-67
2023/05/11 09:31:42;;;;;;;0.70;0.70;;;16.30;68.20;;;;;;5037079;28;20021;-68
2023/05/11 09:34:09;;;;;;;1.10;0.70;;;16.30;67.70;;;;;;5037363;28;20067;-68
2023/05/11 09:36:35;;;;;;;0.85;0.65;;;16.40;68.10;;;;;;5030939;28;20037;-69
2023/05/11 09:39:02;;;;;;;0.60;0.60;;;16.40;68.10;;;;;;5038400;28;20029;-69
2023/05/11 09:41:28;;;;;;;4.78;0.65;;;16.40;67.80;;;;;;4976686;28;20021;-67
2023/05/11 09:44:10;;;;;;;2.70;0.85;;;16.40;67.90;;;;;;5042366;28;20036;-67
2023/05/11 09:46:44;;;;;;;1.35;0.82;;;16.50;67.50;;;;;;5036191;28;20026;-68
2023/05/11 09:49:11;;;;;;;2.33;1.10;;;16.50;67.20;;;;;;5044006;28;20031;-67
2023/05/11 09:51:40;;;;;;;1.95;0.70;;;16.50;67.80;;;;;;5043982;28;20053;-68
2023/05/11 09:54:17;;;;;;;0.98;0.70;;;16.50;67.10;;;;;;5040503;28;20046;-67
2023/05/11 09:56:57;;;;;;;1.38;0.60;;;16.60;67.30;;;;;;5037603;28;20026;-68
2023/05/11 09:59:39;;;;;;;0.70;0.60;;;16.60;67.60;;;;;;5038057;28;20021;-67
2023/05/11 10:02:26;;;;;;;1.27;0.77;;;16.60;67.90;;;;;;5035694;28;20040;-67
2023/05/11 10:04:55;;;;;;;1.75;0.93;;;16.60;66.20;;;;;;5035981;28;20029;-68
2023/05/11 10:07:37;;;;;;;1.33;1.00;;;16.60;66.70;;;;;;5035437;28;20033;-68
2023/05/11 10:10:05;;;;;;;1.95;1.08;;;16.60;66.10;;;;;;5023415;28;20090;-68
2023/05/11 10:12:32;;;;;;;0.98;0.80;;;16.60;66.50;;;;;;5033786;28;20092;-69
2023/05/11 10:15:06;;;;;;;2.90;1.60;;;16.60;66.40;;;;;;5031996;28;20119;-67
2023/05/11 10:17:32;;;;;;;4.15;0.80;;;16.50;66.80;;;;;;5034527;28;20037;-68
2023/05/11 10:19:59;;;;;;;0.77;0.60;;;16.50;67.00;;;;;;5036796;28;20092;-68
2023/05/11 10:22:27;;;;;;;3.03;0.50;;;16.40;66.70;;;;;;5024883;28;20403;-68
2023/05/11 10:24:55;;;;;;;0.43;0.43;;;16.30;66.70;;;;;;5036657;28;20013;-68
2023/05/11 10:27:22;;;;;;;0.70;0.70;;;16.30;66.90;;;;;;5037032;28;20034;-68
2023/05/11 10:29:49;;;;;;;7.07;0.52;;;16.20;66.80;;;;;;5017979;28;20049;-67
2023/05/11 10:32:17;;;;;;;0.50;0.50;;;16.20;66.50;;;;;;5017737;28;20038;-67
2023/05/11 10:34:45;;;;;;;1.42;0.80;;;16.20;66.70;;;;;;5035639;28;20034;-68
2023/05/11 10:37:12;;;;;;;0.55;0.50;;;16.20;66.70;;;;;;5037299;28;20025;-67
2023/05/11 10:39:39;;;;;;;2.05;0.70;;;16.10;66.60;;;;;;5035246;28;20039;-68
2023/05/11 10:42:36;;;;;;;0.63;0.63;;;16.10;66.90;;;;;;5035243;28;20071;-68
2023/05/11 10:45:25;;;;;;;0.80;0.80;;;16.10;67.40;;;;;;5032770;28;20060;-68
2023/05/11 10:48:21;;;;;;;1.08;0.98;;;16.10;68.00;;;;;;5035397;28;20423;-68
2023/05/11 10:51:14;;;;;;;0.95;0.50;;;16.10;67.50;;;;;;5031043;28;20480;-69
2023/05/11 10:53:55;;;;;;;1.33;0.60;;;16.10;67.10;;;;;;5027211;28;20056;-67
2023/05/11 10:56:45;;;;;;;0.95;0.50;;;16.20;67.20;;;;;;5029682;28;20102;-67
2023/05/11 10:59:16;;;;;;;0.77;0.57;;;16.20;67.00;;;;;;5032977;28;20041;-68
2023/05/11 11:01:44;;;;;;;0.50;0.50;;;16.20;67.20;;;;;;5034589;28;20033;-67
2023/05/11 11:04:12;;;;;;;0.70;0.70;;;16.20;67.50;;;;;;5034317;28;20079;-67
2023/05/11 11:06:42;;;;;;;0.73;0.70;;;16.30;67.90;;;;;;5036713;28;20033;-70
2023/05/11 11:09:12;;;;;;;1.95;0.82;;;16.30;67.80;;;;;;5031978;28;20395;-68
2023/05/11 11:11:41;;;;;;;0.60;0.60;;;16.30;67.50;;;;;;5034060;28;20037;-68
2023/05/11 11:14:08;;;;;;;1.13;0.70;;;16.40;67.80;;;;;;5032435;28;20056;-67
2023/05/11 11:16:35;;;;;;;0.50;0.50;;;16.40;67.70;;;;;;5033776;28;20093;-67
2023/05/11 11:19:29;;;;;;;0.65;0.50;;;16.50;67.20;;;;;;5035125;28;20085;-66
2023/05/11 11:22:01;;;;;;;0.65;0.50;;;16.40;65.70;;;;;;5023936;28;20066;-67
2023/05/11 11:24:39;;;;;;;0.90;0.63;;;16.50;66.90;;;;;;5034744;28;20034;-68
2023/05/11 11:27:07;;;;;;;0.60;0.60;;;16.40;66.40;;;;;;5030546;28;20033;-68
2023/05/11 11:29:36;;;;;;;4.53;0.60;;;16.40;66.30;;;;;;5029650;28;20040;-67
2023/05/11 11:32:20;;;;;;;0.50;0.50;;;16.40;66.70;;;;;;5037410;28;20030;-67
2023/05/11 11:34:47;;;;;;;1.48;0.68;;;16.40;65.70;;;;;;5037106;28;20068;-67
2023/05/11 11:37:14;;;;;;;1.95;0.60;;;16.30;66.60;;;;;;5020611;28;20120;-68
2023/05/11 11:39:41;;;;;;;0.50;0.50;;;16.30;67.00;;;;;;4965392;28;20033;-67
2023/05/11 11:42:11;;;;;;;3.28;0.60;;;16.40;67.30;;;;;;5035369;28;20034;-68
2023/05/11 11:44:38;;;;;;;1.25;0.50;;;16.50;67.00;;;;;;5038164;28;20040;-69
2023/05/11 11:47:18;;;;;;;0.85;0.70;;;16.40;66.80;;;;;;5037738;28;20081;-67
2023/05/11 11:49:50;;;;;;;0.50;0.50;;;16.60;66.10;;;;;;5037554;28;20162;-68
2023/05/11 11:52:28;;;;;;;0.60;0.60;;;16.60;67.40;;;;;;5036967;28;20032;-67
2023/05/11 11:55:01;;;;;;;0.85;0.68;;;16.70;67.50;;;;;;5036980;28;20037;-67
2023/05/11 11:57:36;;;;;;;0.50;0.50;;;16.80;67.20;;;;;;5036615;28;20477;-68
2023/05/11 12:00:09;;;;;;;1.33;0.70;;;16.90;66.70;;;;;;5037643;28;20033;-69
2023/05/11 12:02:42;;;;;;;0.82;0.60;;;17.00;67.00;;;;;;5021885;28;20044;-68
2023/05/11 12:05:18;;;;;;;1.48;0.50;;;17.10;66.30;;;;;;5019743;28;20036;-68
2023/05/11 12:07:50;;;;;;;0.88;0.50;;;17.10;66.30;;;;;;5035161;28;20022;-67
2023/05/11 12:10:17;;;;;;;0.50;0.50;;;17.20;66.50;;;;;;5038695;28;20065;-69
2023/05/11 12:12:56;;;;;;;0.98;0.63;;;17.20;65.80;;;;;;5038836;28;20051;-68
2023/05/11 12:15:31;;;;;;;4.00;0.60;;;17.20;64.90;;;;;;5039956;28;20045;-67
2023/05/11 12:17:57;;;;;;;1.00;0.65;;;17.20;64.50;;;;;;5040519;28;20141;-67
2023/05/11 12:20:24;;;;;;;0.57;0.52;;;17.20;64.90;;;;;;5041092;28;20059;-67
2023/05/11 12:22:50;;;;;;;2.90;0.60;;;17.10;65.10;;;;;;5035261;28;20033;-68
2023/05/11 12:25:18;;;;;;;0.40;0.40;;;17.10;65.40;;;;;;5036812;28;20037;-69
2023/05/11 12:27:49;;;;;;;3.22;0.50;;;17.00;65.30;;;;;;5037089;28;20033;-66
2023/05/11 12:30:19;;;;;;;0.70;0.55;;;17.00;65.20;;;;;;5038772;28;20029;-67
2023/05/11 12:32:53;;;;;;;2.13;0.50;;;17.00;65.80;;;;;;5036292;28;20048;-68
2023/05/11 12:35:28;;;;;;;0.95;0.52;;;16.90;66.30;;;;;;5039279;28;20099;-68
2023/05/11 12:37:55;;;;;;;0.82;0.50;;;16.90;65.80;;;;;;5031826;28;20088;-66
2023/05/11 12:40:20;;;;;;;0.57;0.57;;;17.00;65.50;;;;;;5034172;28;20423;-66
2023/05/11 12:42:56;;;;;;;0.95;0.50;;;17.00;65.20;;;;;;5038466;28;20059;-67
2023/05/11 12:45:23;;;;;;;0.80;0.52;;;17.00;64.60;;;;;;5014885;28;20049;-68
2023/05/11 12:47:51;;;;;;;0.40;0.40;;;17.10;65.00;;;;;;5038007;28;20104;-67
2023/05/11 12:50:17;;;;;;;0.73;0.57;;;17.10;64.60;;;;;;5021796;28;20064;-66
2023/05/11 12:52:43;;;;;;;0.70;0.70;;;17.10;65.00;;;;;;5039052;28;20072;-67
2023/05/11 12:55:10;;;;;;;0.73;0.63;;;17.10;64.80;;;;;;5033959;28;20033;-67